createdAt,value
2022-11-25T00:00:55.076Z,5.09
2022-11-25T00:03:21.631Z,5.31
2022-11-25T00:05:48.184Z,5.40
2022-11-25T00:08:14.681Z,5.43
2022-11-25T00:10:41.253Z,5.48
2022-11-25T00:13:07.820Z,5.48
2022-11-25T00:15:34.587Z,5.55
2022-11-25T00:18:01.108Z,5.59
2022-11-25T00:20:27.591Z,5.33
2022-11-25T00:22:54.321Z,5.59
2022-11-25T00:25:20.825Z,5.51
2022-11-25T00:27:47.359Z,5.64
2022-11-25T00:30:14.238Z,5.71
2022-11-25T00:32:40.737Z,5.55
2022-11-25T00:35:07.607Z,5.58
2022-11-25T00:37:34.082Z,5.71
2022-11-25T00:40:00.610Z,5.47
2022-11-25T00:42:45.626Z,5.61
2022-11-25T00:45:12.273Z,5.61
2022-11-25T00:47:38.855Z,5.64
2022-11-25T00:50:05.905Z,5.66
2022-11-25T00:52:36.904Z,5.66
2022-11-25T00:55:04.700Z,5.58
2022-11-25T00:57:31.360Z,5.57
2022-11-25T00:59:57.831Z,5.51
2022-11-25T01:02:24.420Z,5.09
2022-11-25T01:04:51.030Z,5.26
2022-11-25T01:07:18.272Z,5.16
2022-11-25T01:09:44.911Z,4.92
2022-11-25T01:12:11.531Z,4.97
2022-11-25T01:14:38.574Z,4.93
2022-11-25T01:17:05.320Z,4.90
2022-11-25T01:19:31.825Z,4.87
2022-11-25T01:21:58.401Z,4.80
2022-11-25T01:24:26.412Z,4.75
2022-11-25T01:26:55.110Z,4.68
2022-11-25T01:29:21.659Z,4.67
2022-11-25T01:31:48.728Z,4.67
2022-11-25T01:34:21.465Z,4.56
2022-11-25T01:36:48.409Z,4.63
2022-11-25T01:39:28.388Z,4.68
2022-11-25T01:41:58.387Z,4.47
2022-11-25T01:44:29.144Z,4.54
2022-11-25T01:47:12.916Z,4.48
2022-11-25T01:49:48.573Z,4.62
2022-11-25T01:52:17.999Z,4.71
2022-11-25T01:55:00.494Z,4.56
2022-11-25T01:57:50.918Z,4.43
2022-11-25T02:00:17.984Z,4.34
2022-11-25T02:02:46.698Z,4.46
2022-11-25T02:05:17.930Z,4.68
2022-11-25T02:07:48.547Z,4.69
2022-11-25T02:10:19.934Z,4.89
2022-11-25T02:12:47.375Z,5.09
2022-11-25T02:15:15.331Z,5.03
2022-11-25T02:17:43.252Z,4.91
2022-11-25T02:20:12.286Z,4.69
2022-11-25T02:22:53.268Z,4.60
2022-11-25T02:25:25.341Z,4.73
2022-11-25T02:27:57.437Z,4.54
2022-11-25T02:30:24.070Z,4.60
2022-11-25T02:32:50.705Z,4.77
2022-11-25T02:35:36.298Z,4.65
2022-11-25T02:38:09.800Z,4.68
2022-11-25T02:40:45.575Z,4.84
2022-11-25T02:43:13.313Z,4.68
2022-11-25T02:45:47.859Z,4.42
2022-11-25T02:48:14.702Z,4.58
2022-11-25T02:50:42.150Z,4.52
2022-11-25T02:53:08.902Z,4.50
2022-11-25T02:55:35.598Z,4.54
2022-11-25T02:58:02.137Z,4.71
2022-11-25T03:00:28.652Z,4.60
2022-11-25T03:02:55.618Z,4.83
2022-11-25T03:05:23.041Z,4.92
2022-11-25T03:07:49.820Z,5.12
2022-11-25T03:10:16.792Z,5.23
2022-11-25T03:12:43.294Z,5.14
2022-11-25T03:15:11.119Z,5.25
2022-11-25T03:17:38.009Z,5.31
2022-11-25T03:20:07.037Z,5.35
2022-11-25T03:22:33.780Z,5.31
2022-11-25T03:25:00.343Z,5.37
2022-11-25T03:27:30.176Z,5.19
2022-11-25T03:29:56.958Z,5.13
2022-11-25T03:32:23.450Z,4.85
2022-11-25T03:34:49.959Z,4.98
2022-11-25T03:37:16.566Z,5.06
2022-11-25T03:39:43.111Z,5.02
2022-11-25T03:42:09.617Z,4.95
2022-11-25T03:44:36.446Z,4.94
2022-11-25T03:47:03.757Z,4.71
2022-11-25T03:49:30.231Z,4.81
2022-11-25T03:51:56.766Z,4.92
2022-11-25T03:54:23.244Z,4.80
2022-11-25T03:56:49.839Z,4.83
2022-11-25T03:59:16.368Z,4.88
2022-11-25T04:01:44.403Z,4.70
2022-11-25T04:04:11.292Z,4.72
2022-11-25T04:06:39.360Z,4.81
2022-11-25T04:09:09.783Z,4.87
2022-11-25T04:11:54.919Z,4.63
2022-11-25T04:14:21.456Z,4.77
2022-11-25T04:16:48.395Z,4.72
2022-11-25T04:19:15.149Z,4.87
2022-11-25T04:21:41.641Z,4.76
2022-11-25T04:24:08.472Z,4.61
2022-11-25T04:26:34.979Z,4.56
2022-11-25T04:29:01.851Z,4.66
2022-11-25T04:31:28.327Z,4.78
2022-11-25T04:33:54.905Z,4.94
2022-11-25T04:36:21.445Z,4.83
2022-11-25T04:38:47.913Z,4.68
2022-11-25T04:41:14.608Z,4.74
2022-11-25T04:43:41.156Z,4.59
2022-11-25T04:46:15.241Z,4.86
2022-11-25T04:48:41.808Z,4.53
2022-11-25T04:51:08.357Z,4.79
2022-11-25T04:53:34.908Z,4.47
2022-11-25T04:56:01.452Z,4.35
2022-11-25T04:58:46.539Z,4.35
2022-11-25T05:01:13.119Z,4.08
2022-11-25T05:03:43.572Z,4.23
2022-11-25T05:06:13.141Z,4.17
2022-11-25T05:08:39.644Z,4.18
2022-11-25T05:11:06.189Z,4.05
2022-11-25T05:13:32.793Z,3.94
2022-11-25T05:16:00.340Z,4.00
2022-11-25T05:18:26.904Z,3.95
2022-11-25T05:20:53.449Z,3.74
2022-11-25T05:23:19.961Z,3.43
2022-11-25T05:25:46.650Z,3.43
2022-11-25T05:28:13.176Z,3.18
2022-11-25T05:30:39.695Z,3.17
2022-11-25T05:33:06.260Z,3.13
2022-11-25T05:35:32.740Z,3.03
2022-11-25T05:38:01.083Z,3.20
2022-11-25T05:40:27.618Z,3.06
2022-11-25T05:42:54.120Z,2.94
2022-11-25T05:45:20.586Z,2.80
2022-11-25T05:47:47.104Z,2.92
2022-11-25T05:50:13.635Z,2.83
2022-11-25T05:52:40.198Z,2.74
2022-11-25T05:55:07.410Z,2.66
2022-11-25T05:57:33.928Z,2.71
2022-11-25T06:00:00.480Z,2.77
2022-11-25T06:02:27.098Z,2.60
2022-11-25T06:04:53.667Z,2.35
2022-11-25T06:07:20.242Z,2.45
2022-11-25T06:09:46.758Z,2.36
2022-11-25T06:12:13.303Z,2.28
2022-11-25T06:14:39.815Z,2.20
2022-11-25T06:17:06.321Z,2.23
2022-11-25T06:19:32.854Z,2.44
2022-11-25T06:21:59.391Z,2.14
2022-11-25T06:24:25.887Z,2.12
2022-11-25T06:26:52.362Z,2.07
2022-11-25T06:29:18.849Z,2.34
2022-11-25T06:31:45.357Z,2.54
2022-11-25T06:34:11.900Z,2.59
2022-11-25T06:36:38.403Z,2.66
2022-11-25T06:39:04.946Z,2.52
2022-11-25T06:41:31.554Z,2.50
2022-11-25T06:43:58.069Z,2.32
2022-11-25T06:46:25.562Z,2.20
2022-11-25T06:48:53.948Z,2.15
2022-11-25T06:51:20.648Z,2.07
2022-11-25T06:53:47.359Z,2.14
2022-11-25T06:56:20.590Z,2.14
2022-11-25T06:58:48.361Z,2.16
2022-11-25T07:01:17.917Z,2.02
2022-11-25T07:03:44.866Z,1.99
2022-11-25T07:06:16.358Z,1.97
2022-11-25T07:08:43.947Z,1.92
2022-11-25T07:11:16.007Z,2.05
2022-11-25T07:13:42.489Z,1.92
2022-11-25T07:16:10.734Z,2.02
2022-11-25T07:18:39.069Z,2.01
2022-11-25T07:21:17.100Z,2.02
2022-11-25T07:23:44.919Z,2.05
2022-11-25T07:26:12.940Z,2.00
2022-11-25T07:28:40.202Z,2.00
2022-11-25T07:31:25.111Z,2.09
2022-11-25T07:34:21.443Z,2.28
2022-11-25T07:36:49.685Z,2.19
2022-11-25T07:39:23.525Z,2.16
2022-11-25T07:41:51.624Z,2.23
2022-11-25T07:44:18.155Z,2.35
2022-11-25T07:46:47.545Z,2.19
2022-11-25T07:49:18.108Z,2.27
2022-11-25T07:51:49.865Z,2.34
2022-11-25T07:54:17.446Z,2.22
2022-11-25T07:56:48.520Z,2.15
2022-11-25T07:59:18.385Z,2.16
2022-11-25T08:01:45.100Z,2.28
2022-11-25T08:04:19.457Z,2.33
2022-11-25T08:06:48.403Z,2.46
2022-11-25T08:09:19.215Z,2.37
2022-11-25T08:11:46.259Z,2.36
2022-11-25T08:14:12.799Z,2.61
2022-11-25T08:16:39.832Z,2.44
2022-11-25T08:19:11.487Z,2.45
2022-11-25T08:21:38.340Z,2.25
2022-11-25T08:24:05.484Z,2.34
2022-11-25T08:26:36.536Z,2.30
2022-11-25T08:29:05.025Z,2.33
2022-11-25T08:31:35.005Z,2.24
2022-11-25T08:34:01.729Z,2.17
2022-11-25T08:36:29.568Z,2.33
2022-11-25T08:38:59.274Z,2.19
2022-11-25T08:41:29.523Z,2.11
2022-11-25T08:43:57.500Z,2.21
2022-11-25T08:46:26.705Z,2.29
2022-11-25T08:48:53.869Z,2.33
2022-11-25T08:51:27.455Z,2.56
2022-11-25T08:53:54.479Z,2.62
2022-11-25T08:56:25.951Z,2.57
2022-11-25T08:58:53.831Z,2.58
2022-11-25T09:01:22.215Z,2.38
2022-11-25T09:03:51.241Z,2.36
2022-11-25T09:06:18.657Z,2.44
2022-11-25T09:08:45.934Z,2.60
2022-11-25T09:11:12.563Z,2.44
2022-11-25T09:13:39.356Z,2.50
2022-11-25T09:16:07.299Z,2.45
2022-11-25T09:18:35.381Z,2.57
2022-11-25T09:21:08.533Z,2.63
2022-11-25T09:23:35.043Z,2.59
2022-11-25T09:26:01.681Z,2.63
2022-11-25T09:28:28.285Z,2.73
2022-11-25T09:30:55.178Z,2.79
2022-11-25T09:33:21.902Z,2.98
2022-11-25T09:35:50.277Z,2.99
2022-11-25T09:38:16.941Z,2.85
2022-11-25T09:40:49.313Z,2.99
2022-11-25T09:43:52.655Z,3.26
2022-11-25T09:46:43.136Z,3.18
2022-11-25T09:49:40.462Z,3.46
2022-11-25T09:52:12.000Z,3.51
2022-11-25T09:54:50.910Z,3.55
2022-11-25T09:57:56.466Z,3.59
2022-11-25T10:00:36.306Z,3.59
2022-11-25T10:03:11.824Z,3.77
2022-11-25T10:06:17.223Z,3.79
2022-11-25T10:08:48.014Z,3.87
2022-11-25T10:11:32.950Z,3.90
2022-11-25T10:14:13.081Z,4.06
2022-11-25T10:16:51.555Z,4.17
2022-11-25T10:19:30.164Z,4.04
2022-11-25T10:21:56.830Z,4.14
2022-11-25T10:24:25.128Z,4.01
2022-11-25T10:27:01.313Z,4.12
2022-11-25T10:29:30.517Z,4.18
2022-11-25T10:32:16.148Z,4.18
2022-11-25T10:34:48.767Z,4.38
2022-11-25T10:37:26.831Z,4.49
2022-11-25T10:39:53.358Z,4.54
2022-11-25T10:42:25.840Z,4.59
2022-11-25T10:44:54.750Z,4.64
2022-11-25T10:47:35.819Z,4.69
2022-11-25T10:50:25.621Z,4.82
2022-11-25T10:53:08.631Z,4.95
2022-11-25T10:55:35.531Z,5.01
2022-11-25T10:58:28.481Z,5.14
2022-11-25T11:01:13.089Z,5.36
2022-11-25T11:03:39.846Z,5.40
2022-11-25T11:06:06.465Z,5.46
2022-11-25T11:08:41.099Z,5.63
2022-11-25T11:11:15.192Z,5.75
2022-11-25T11:13:42.064Z,5.82
2022-11-25T11:16:26.735Z,5.95
2022-11-25T11:18:55.187Z,5.96
2022-11-25T11:21:36.068Z,6.12
2022-11-25T11:24:15.726Z,6.27
2022-11-25T11:26:42.271Z,6.34
2022-11-25T11:29:17.135Z,6.43
2022-11-25T11:32:07.819Z,6.51
2022-11-25T11:34:54.128Z,6.53
2022-11-25T11:37:32.870Z,6.74
2022-11-25T11:40:17.694Z,6.84
2022-11-25T11:43:17.783Z,6.80
2022-11-25T11:46:01.752Z,6.95
2022-11-25T11:48:43.220Z,7.00
2022-11-25T11:51:12.352Z,7.05
2022-11-25T11:54:15.908Z,7.26
2022-11-25T11:56:55.284Z,7.44
2022-11-25T11:59:33.694Z,7.40
2022-11-25T12:02:09.208Z,7.49
2022-11-25T12:04:41.419Z,7.55
2022-11-25T12:07:48.409Z,7.50
2022-11-25T12:10:14.869Z,7.56
2022-11-25T12:12:57.826Z,7.74
2022-11-25T12:15:44.718Z,7.84
2022-11-25T12:18:29.838Z,7.91
2022-11-25T12:21:03.576Z,7.80
2022-11-25T12:23:44.802Z,7.74
2022-11-25T12:26:17.657Z,7.90
2022-11-25T12:28:52.216Z,7.83
2022-11-25T12:31:39.309Z,7.91
2022-11-25T12:34:13.937Z,8.01
2022-11-25T12:36:44.385Z,7.92
2022-11-25T12:39:34.214Z,8.03
2022-11-25T12:42:12.474Z,8.25
2022-11-25T12:44:59.547Z,8.12
2022-11-25T12:47:26.720Z,8.30
2022-11-25T12:49:55.894Z,8.32
2022-11-25T12:52:25.429Z,8.51
2022-11-25T12:55:13.844Z,8.01
2022-11-25T12:58:02.943Z,8.06
2022-11-25T13:01:07.246Z,8.04
2022-11-25T13:03:53.635Z,8.11
2022-11-25T13:06:22.930Z,8.16
2022-11-25T13:09:08.560Z,8.36
2022-11-25T13:11:53.234Z,8.24
2022-11-25T13:14:31.176Z,8.10
2022-11-25T13:17:00.356Z,8.21
2022-11-25T13:19:27.250Z,8.09
2022-11-25T13:22:04.610Z,8.09
2022-11-25T13:24:35.272Z,8.27
2022-11-25T13:27:02.088Z,8.57
2022-11-25T13:29:28.713Z,8.74
2022-11-25T13:32:19.863Z,8.80
2022-11-25T13:34:46.323Z,8.98
2022-11-25T13:37:37.176Z,8.84
2022-11-25T13:40:26.208Z,8.36
2022-11-25T13:42:55.445Z,8.18
2022-11-25T13:45:28.046Z,8.21
2022-11-25T13:48:03.762Z,8.14
2022-11-25T13:50:48.304Z,8.00
2022-11-25T13:53:34.994Z,7.81
2022-11-25T13:56:25.591Z,7.77
2022-11-25T13:59:10.230Z,7.64
2022-11-25T14:01:52.196Z,7.60
2022-11-25T14:04:32.365Z,7.43
2022-11-25T14:07:07.575Z,7.35
2022-11-25T14:09:42.868Z,7.29
2022-11-25T14:12:39.137Z,7.03
2022-11-25T14:15:14.994Z,6.92
2022-11-25T14:18:09.389Z,6.71
2022-11-25T14:20:51.608Z,6.59
2022-11-25T14:23:55.480Z,6.63
2022-11-25T14:26:49.744Z,6.80
2022-11-25T14:29:35.889Z,6.75
2022-11-25T14:32:35.412Z,6.76
2022-11-25T14:35:19.694Z,6.79
2022-11-25T14:37:56.523Z,6.78
2022-11-25T14:40:54.355Z,6.71
2022-11-25T14:43:24.205Z,6.56
2022-11-25T14:46:16.712Z,6.64
2022-11-25T14:48:44.584Z,6.55
2022-11-25T14:51:13.874Z,6.51
2022-11-25T14:53:48.248Z,6.42
2022-11-25T14:56:21.500Z,6.16
2022-11-25T14:58:52.227Z,6.03
2022-11-25T15:01:28.185Z,6.16
2022-11-25T15:04:13.253Z,6.20
2022-11-25T15:06:45.039Z,6.01
2022-11-25T15:09:33.182Z,6.02
2022-11-25T15:12:07.221Z,5.90
2022-11-25T15:14:37.438Z,5.84
2022-11-25T15:17:08.832Z,5.77
2022-11-25T15:19:37.090Z,5.78
2022-11-25T15:22:24.038Z,5.68
2022-11-25T15:24:56.030Z,5.61
2022-11-25T15:27:28.602Z,5.58
2022-11-25T15:29:56.688Z,5.61
2022-11-25T15:32:27.187Z,5.60
2022-11-25T15:34:56.076Z,5.49
2022-11-25T15:37:24.062Z,5.48
2022-11-25T15:40:11.125Z,5.48
2022-11-25T15:42:37.661Z,5.54
2022-11-25T15:45:10.726Z,5.56
2022-11-25T15:47:37.381Z,5.32
2022-11-25T15:50:07.618Z,5.48
2022-11-25T15:52:37.676Z,5.45
2022-11-25T15:55:37.639Z,5.43
2022-11-25T15:58:17.490Z,5.35
2022-11-25T16:01:22.569Z,5.23
2022-11-25T16:03:51.019Z,4.99
2022-11-25T16:06:26.303Z,5.19
2022-11-25T16:09:01.246Z,5.07
2022-11-25T16:11:33.143Z,5.36
2022-11-25T16:14:17.680Z,5.24
2022-11-25T16:16:44.717Z,5.42
2022-11-25T16:19:16.435Z,5.45
2022-11-25T16:21:50.381Z,5.44
2022-11-25T16:24:30.226Z,5.35
2022-11-25T16:27:03.268Z,5.11
2022-11-25T16:29:36.645Z,5.20
2022-11-25T16:32:16.560Z,5.37
2022-11-25T16:34:43.416Z,5.37
2022-11-25T16:37:09.981Z,5.19
2022-11-25T16:39:38.402Z,4.97
2022-11-25T16:42:05.716Z,5.08
2022-11-25T16:44:34.652Z,4.88
2022-11-25T16:47:01.495Z,4.77
2022-11-25T16:49:30.951Z,4.73
2022-11-25T16:51:57.440Z,4.79
2022-11-25T16:54:23.978Z,4.77
2022-11-25T16:56:52.944Z,4.66
2022-11-25T16:59:32.016Z,4.82
2022-11-25T17:02:00.426Z,5.12
2022-11-25T17:04:27.580Z,5.02
2022-11-25T17:07:30.369Z,5.16
2022-11-25T17:09:42.713Z,4.95
2022-11-25T17:12:22.039Z,5.05
2022-11-25T17:14:49.252Z,5.13
2022-11-25T17:17:24.422Z,5.18
2022-11-25T17:19:52.198Z,4.91
2022-11-25T17:22:22.474Z,4.90
2022-11-25T17:24:49.342Z,5.04
2022-11-25T17:27:24.016Z,4.78
2022-11-25T17:29:51.460Z,4.97
2022-11-25T17:32:18.142Z,5.03
2022-11-25T17:34:44.724Z,5.22
2022-11-25T17:37:19.598Z,5.19
2022-11-25T17:39:46.143Z,5.17
2022-11-25T17:42:18.431Z,5.07
2022-11-25T17:44:49.799Z,4.95
2022-11-25T17:47:19.485Z,5.12
2022-11-25T17:49:46.019Z,5.03
2022-11-25T17:52:12.515Z,5.20
2022-11-25T17:54:39.483Z,5.24
2022-11-25T17:57:08.029Z,5.26
2022-11-25T17:59:35.507Z,5.16
2022-11-25T18:02:02.485Z,4.98
2022-11-25T18:04:36.275Z,5.17
2022-11-25T18:07:03.088Z,5.26
2022-11-25T18:09:29.608Z,5.28
2022-11-25T18:12:03.020Z,5.24
2022-11-25T18:14:38.374Z,5.32
2022-11-25T18:17:06.428Z,5.18
2022-11-25T18:19:34.256Z,5.24
2022-11-25T18:22:11.409Z,5.13
2022-11-25T18:24:38.464Z,5.14
2022-11-25T18:27:06.811Z,5.19
2022-11-25T18:29:33.643Z,5.36
2022-11-25T18:32:00.273Z,5.42
2022-11-25T18:34:27.115Z,5.16
2022-11-25T18:36:54.259Z,5.14
2022-11-25T18:39:21.564Z,5.20
2022-11-25T18:41:49.808Z,5.34
2022-11-25T18:44:26.296Z,5.11
2022-11-25T18:46:53.475Z,4.94
2022-11-25T18:49:20.025Z,4.94
2022-11-25T18:51:46.588Z,5.08
2022-11-25T18:54:13.149Z,5.29
2022-11-25T18:56:41.033Z,4.97
2022-11-25T18:59:14.002Z,4.90
2022-11-25T19:01:42.405Z,4.86
2022-11-25T19:04:16.368Z,5.09
2022-11-25T19:06:43.714Z,4.93
2022-11-25T19:09:10.565Z,4.84
2022-11-25T19:11:41.723Z,4.98
2022-11-25T19:14:20.161Z,5.09
2022-11-25T19:16:46.795Z,5.25
2022-11-25T19:19:16.907Z,5.24
2022-11-25T19:21:43.813Z,5.05
2022-11-25T19:24:16.322Z,5.20
2022-11-25T19:26:48.918Z,5.13
2022-11-25T19:29:21.807Z,5.00
2022-11-25T19:31:49.615Z,5.05
2022-11-25T19:34:30.450Z,4.90
2022-11-25T19:36:56.914Z,4.99
2022-11-25T19:39:23.408Z,4.94
2022-11-25T19:41:50.021Z,5.20
2022-11-25T19:44:19.523Z,5.20
2022-11-25T19:47:13.928Z,5.19
2022-11-25T19:49:34.202Z,5.20
2022-11-25T19:52:00.777Z,5.15
2022-11-25T19:54:27.278Z,5.16
2022-11-25T19:56:53.749Z,5.29
2022-11-25T19:59:20.234Z,5.64
2022-11-25T20:01:46.911Z,5.71
2022-11-25T20:04:20.301Z,5.56
2022-11-25T20:06:48.727Z,5.99
2022-11-25T20:09:15.367Z,6.08
2022-11-25T20:11:42.514Z,6.32
2022-11-25T20:14:09.050Z,6.43
2022-11-25T20:16:39.975Z,6.53
2022-11-25T20:19:14.188Z,6.60
2022-11-25T20:21:41.023Z,6.64
2022-11-25T20:24:14.940Z,6.66
2022-11-25T20:26:45.886Z,6.72
2022-11-25T20:29:19.026Z,6.71
2022-11-25T20:31:46.291Z,6.85
2022-11-25T20:34:13.128Z,6.94
2022-11-25T20:36:41.972Z,6.98
2022-11-25T20:39:16.709Z,7.01
2022-11-25T20:41:46.668Z,7.09
2022-11-25T20:44:13.791Z,7.12
2022-11-25T20:46:40.251Z,7.10
2022-11-25T20:49:27.501Z,7.16
2022-11-25T20:51:54.255Z,7.17
2022-11-25T20:54:20.797Z,7.18
2022-11-25T20:56:47.397Z,7.20
2022-11-25T20:59:22.735Z,7.13
2022-11-25T21:01:50.685Z,7.15
2022-11-25T21:04:18.333Z,7.21
2022-11-25T21:06:45.294Z,7.23
2022-11-25T21:09:21.630Z,7.18
2022-11-25T21:11:48.537Z,7.20
2022-11-25T21:14:17.881Z,7.12
2022-11-25T21:16:44.866Z,7.13
2022-11-25T21:19:11.643Z,7.10
2022-11-25T21:21:41.692Z,7.04
2022-11-25T21:24:23.185Z,7.06
2022-11-25T21:26:50.538Z,6.99
2022-11-25T21:29:17.836Z,7.00
2022-11-25T21:31:44.814Z,7.02
2022-11-25T21:34:13.422Z,6.99
2022-11-25T21:36:41.563Z,6.90
2022-11-25T21:39:21.242Z,6.93
2022-11-25T21:41:47.941Z,6.87
2022-11-25T21:44:24.212Z,6.87
2022-11-25T21:46:52.377Z,6.89
2022-11-25T21:49:18.942Z,6.88
2022-11-25T21:51:45.654Z,6.87
2022-11-25T21:54:12.188Z,6.86
2022-11-25T21:56:39.031Z,6.89
2022-11-25T21:59:07.527Z,6.76
2022-11-25T22:01:34.153Z,6.92
2022-11-25T22:04:00.730Z,6.92
2022-11-25T22:06:30.338Z,6.89
2022-11-25T22:08:57.416Z,6.91
2022-11-25T22:11:31.160Z,6.97
2022-11-25T22:13:58.935Z,7.05
2022-11-25T22:16:30.604Z,6.93
2022-11-25T22:18:57.874Z,6.90
2022-11-25T22:21:24.618Z,6.78
2022-11-25T22:23:51.314Z,6.79
2022-11-25T22:26:24.027Z,6.63
2022-11-25T22:28:52.051Z,6.47
2022-11-25T22:31:20.485Z,6.42
2022-11-25T22:33:47.611Z,6.63
2022-11-25T22:36:37.258Z,6.77
2022-11-25T22:39:24.738Z,6.90
2022-11-25T22:42:01.182Z,6.83
2022-11-25T22:44:36.785Z,6.67
2022-11-25T22:47:04.357Z,6.52
2022-11-25T22:49:40.109Z,6.73
2022-11-25T22:52:18.694Z,6.78
2022-11-25T22:54:45.267Z,6.80
2022-11-25T22:57:11.738Z,6.84
2022-11-25T22:59:38.329Z,6.94
2022-11-25T23:02:05.217Z,6.93
2022-11-25T23:04:31.924Z,6.99
2022-11-25T23:06:58.440Z,6.98
2022-11-25T23:09:28.164Z,6.99
2022-11-25T23:11:54.779Z,6.99
2022-11-25T23:14:21.245Z,6.97
2022-11-25T23:16:47.839Z,7.00
2022-11-25T23:19:18.700Z,7.03
2022-11-25T23:21:45.792Z,7.05
2022-11-25T23:24:14.763Z,7.09
2022-11-25T23:26:41.696Z,7.04
2022-11-25T23:29:08.324Z,7.09
2022-11-25T23:31:37.505Z,7.12
2022-11-25T23:34:05.876Z,7.08
2022-11-25T23:36:46.304Z,7.11
2022-11-25T23:39:33.134Z,7.09
2022-11-25T23:41:59.641Z,7.08
2022-11-25T23:44:28.399Z,7.10
2022-11-25T23:47:01.115Z,7.04
2022-11-25T23:49:36.032Z,7.06
2022-11-25T23:52:07.736Z,7.07
2022-11-25T23:54:40.650Z,6.98
2022-11-25T23:57:16.452Z,6.88
2022-11-25T23:59:43.869Z,6.84
